sensor_id;sensor_type;location;lat;lon;timestamp;pressure;altitude;pressure_sealevel;temperature;humidity
72560;BME280;62987;52.382;9.752;2023-09-18T00:01:27;100369.31;;;18.57;100.00
72560;BME280;62987;52.382;9.752;2023-09-18T00:03:55;100355.34;;;18.52;100.00
72560;BME280;62987;52.382;9.752;2023-09-18T00:06:24;100341.00;;;18.51;100.00
72560;BME280;62987;52.382;9.752;2023-09-18T00:08:53;100328.16;;;18.44;100.00
72560;BME280;62987;52.382;9.752;2023-09-18T00:11:21;100344.97;;;18.58;100.00
72560;BME280;62987;52.382;9.752;2023-09-18T00:13:51;100335.63;;;18.62;100.00
72560;BME280;62987;52.382;9.752;2023-09-18T00:16:19;100330.25;;;18.62;100.00
72560;BME280;62987;52.382;9.752;2023-09-18T00:18:48;100314.59;;;18.56;100.00
72560;BME280;62987;52.382;9.752;2023-09-18T00:21:19;100309.28;;;18.55;100.00
72560;BME280;62987;52.382;9.752;2023-09-18T00:23:48;100301.84;;;18.58;100.00
72560;BME280;62987;52.382;9.752;2023-09-18T00:26:17;100291.06;;;18.58;100.00
72560;BME280;62987;52.382;9.752;2023-09-18T00:28:51;100278.94;;;18.53;100.00
72560;BME280;62987;52.382;9.752;2023-09-18T00:31:20;100279.06;;;18.51;100.00
72560;BME280;62987;52.382;9.752;2023-09-18T00:33:48;100278.44;;;18.48;100.00
72560;BME280;62987;52.382;9.752;2023-09-18T00:36:16;100281.97;;;18.48;100.00
72560;BME280;62987;52.382;9.752;2023-09-18T00:38:45;100290.34;;;18.45;100.00
72560;BME280;62987;52.382;9.752;2023-09-18T00:41:14;100279.44;;;18.47;100.00
72560;BME280;62987;52.382;9.752;2023-09-18T00:43:43;100270.84;;;18.42;100.00
72560;BME280;62987;52.382;9.752;2023-09-18T00:46:13;100272.06;;;18.49;100.00
72560;BME280;62987;52.382;9.752;2023-09-18T00:48:41;100265.81;;;18.48;100.00
72560;BME280;62987;52.382;9.752;2023-09-18T00:51:10;100270.50;;;18.46;100.00
72560;BME280;62987;52.382;9.752;2023-09-18T00:53:38;100265.34;;;18.43;100.00
72560;BME280;62987;52.382;9.752;2023-09-18T00:56:07;100267.31;;;18.41;100.00
72560;BME280;62987;52.382;9.752;2023-09-18T00:58:35;100261.44;;;18.36;100.00
72560;BME280;62987;52.382;9.752;2023-09-18T01:01:04;100269.03;;;18.42;100.00
72560;BME280;62987;52.382;9.752;2023-09-18T01:03:34;100260.22;;;18.40;100.00
72560;BME280;62987;52.382;9.752;2023-09-18T01:06:03;100255.78;;;18.50;100.00
72560;BME280;62987;52.382;9.752;2023-09-18T01:08:31;100245.53;;;18.55;100.00
72560;BME280;62987;52.382;9.752;2023-09-18T01:11:04;100239.78;;;18.60;100.00
72560;BME280;62987;52.382;9.752;2023-09-18T01:13:38;100231.88;;;18.68;100.00
72560;BME280;62987;52.382;9.752;2023-09-18T01:16:14;100228.22;;;18.69;100.00
72560;BME280;62987;52.382;9.752;2023-09-18T01:18:50;100214.00;;;18.67;100.00
72560;BME280;62987;52.382;9.752;2023-09-18T01:21:19;100205.78;;;18.80;100.00
72560;BME280;62987;52.382;9.752;2023-09-18T01:23:49;100207.47;;;18.81;100.00
72560;BME280;62987;52.382;9.752;2023-09-18T01:26:18;100206.75;;;18.79;100.00
72560;BME280;62987;52.382;9.752;2023-09-18T01:28:47;100199.66;;;18.77;100.00
72560;BME280;62987;52.382;9.752;2023-09-18T01:31:15;100193.94;;;18.71;100.00
72560;BME280;62987;52.382;9.752;2023-09-18T01:33:45;100199.03;;;18.74;100.00
72560;BME280;62987;52.382;9.752;2023-09-18T01:36:16;100193.19;;;18.69;100.00
72560;BME280;62987;52.382;9.752;2023-09-18T01:38:45;100194.03;;;18.69;100.00
72560;BME280;62987;52.382;9.752;2023-09-18T01:41:15;100186.94;;;18.68;100.00
72560;BME280;62987;52.382;9.752;2023-09-18T01:43:44;100190.03;;;18.64;100.00
72560;BME280;62987;52.382;9.752;2023-09-18T01:46:13;100184.03;;;18.60;100.00
72560;BME280;62987;52.382;9.752;2023-09-18T01:48:45;100189.06;;;18.65;100.00
72560;BME280;62987;52.382;9.752;2023-09-18T01:51:14;100189.91;;;18.65;100.00
72560;BME280;62987;52.382;9.752;2023-09-18T01:53:43;100182.81;;;18.64;100.00
72560;BME280;62987;52.382;9.752;2023-09-18T01:56:12;100172.28;;;18.61;100.00
72560;BME280;62987;52.382;9.752;2023-09-18T01:58:42;100176.16;;;18.68;100.00
72560;BME280;62987;52.382;9.752;2023-09-18T02:01:10;100170.66;;;18.70;100.00
72560;BME280;62987;52.382;9.752;2023-09-18T02:03:39;100166.38;;;18.67;100.00
72560;BME280;62987;52.382;9.752;2023-09-18T02:06:28;100163.94;;;18.64;100.00
72560;BME280;62987;52.382;9.752;2023-09-18T02:08:58;100152.94;;;18.56;100.00
72560;BME280;62987;52.382;9.752;2023-09-18T02:11:30;100150.34;;;18.55;100.00
72560;BME280;62987;52.382;9.752;2023-09-18T02:14:01;100141.56;;;18.53;100.00
72560;BME280;62987;52.382;9.752;2023-09-18T02:16:32;100144.38;;;18.51;100.00
72560;BME280;62987;52.382;9.752;2023-09-18T02:19:00;100151.47;;;18.52;100.00
72560;BME280;62987;52.382;9.752;2023-09-18T02:21:29;100134.38;;;18.42;100.00
72560;BME280;62987;52.382;9.752;2023-09-18T02:23:57;100135.84;;;18.46;100.00
72560;BME280;62987;52.382;9.752;2023-09-18T02:26:26;100138.78;;;18.43;100.00
72560;BME280;62987;52.382;9.752;2023-09-18T02:28:56;100137.06;;;18.42;100.00
72560;BME280;62987;52.382;9.752;2023-09-18T02:31:26;100139.50;;;18.45;100.00
72560;BME280;62987;52.382;9.752;2023-09-18T02:33:55;100116.53;;;18.30;100.00
72560;BME280;62987;52.382;9.752;2023-09-18T02:36:24;100118.38;;;18.29;100.00
72560;BME280;62987;52.382;9.752;2023-09-18T02:38:52;100121.69;;;18.33;100.00
72560;BME280;62987;52.382;9.752;2023-09-18T02:41:21;100108.84;;;18.25;100.00
72560;BME280;62987;52.382;9.752;2023-09-18T02:43:49;100117.00;;;18.35;100.00
72560;BME280;62987;52.382;9.752;2023-09-18T02:46:17;100120.91;;;18.42;100.00
72560;BME280;62987;52.382;9.752;2023-09-18T02:48:47;100114.47;;;18.33;100.00
72560;BME280;62987;52.382;9.752;2023-09-18T02:51:16;100115.06;;;18.37;100.00
72560;BME280;62987;52.382;9.752;2023-09-18T02:53:44;100107.38;;;18.32;100.00
72560;BME280;62987;52.382;9.752;2023-09-18T02:56:12;100116.75;;;18.38;100.00
72560;BME280;62987;52.382;9.752;2023-09-18T02:58:41;100116.03;;;18.36;100.00
72560;BME280;62987;52.382;9.752;2023-09-18T03:01:09;100109.66;;;18.37;100.00
72560;BME280;62987;52.382;9.752;2023-09-18T03:03:38;100109.66;;;18.37;100.00
72560;BME280;62987;52.382;9.752;2023-09-18T03:06:10;100106.00;;;18.38;100.00
72560;BME280;62987;52.382;9.752;2023-09-18T03:08:39;100112.34;;;18.37;100.00
72560;BME280;62987;52.382;9.752;2023-09-18T03:11:11;100102.56;;;18.36;100.00
72560;BME280;62987;52.382;9.752;2023-09-18T03:13:43;100070.44;;;18.23;100.00
72560;BME280;62987;52.382;9.752;2023-09-18T03:16:13;100078.00;;;18.29;100.00
72560;BME280;62987;52.382;9.752;2023-09-18T03:18:43;100080.78;;;18.39;100.00
72560;BME280;62987;52.382;9.752;2023-09-18T03:21:12;100090.16;;;18.45;100.00
72560;BME280;62987;52.382;9.752;2023-09-18T03:23:41;100079.41;;;18.45;100.00
72560;BME280;62987;52.382;9.752;2023-09-18T03:26:10;100079.13;;;18.48;100.00
72560;BME280;62987;52.382;9.752;2023-09-18T03:28:39;100082.81;;;18.47;100.00
72560;BME280;62987;52.382;9.752;2023-09-18T03:31:07;100065.47;;;18.40;100.00
72560;BME280;62987;52.382;9.752;2023-09-18T03:33:36;100072.91;;;18.47;100.00
72560;BME280;62987;52.382;9.752;2023-09-18T03:36:05;100066.50;;;18.48;100.00
72560;BME280;62987;52.382;9.752;2023-09-18T03:38:37;100055.63;;;18.50;100.00
72560;BME280;62987;52.382;9.752;2023-09-18T03:41:07;100047.41;;;18.51;100.00
72560;BME280;62987;52.382;9.752;2023-09-18T03:43:36;100045.97;;;18.47;100.00
72560;BME280;62987;52.382;9.752;2023-09-18T03:46:05;100039.72;;;18.47;100.00
72560;BME280;62987;52.382;9.752;2023-09-18T03:48:40;100035.22;;;18.47;100.00
72560;BME280;62987;52.382;9.752;2023-09-18T03:51:09;100024.94;;;18.41;100.00
72560;BME280;62987;52.382;9.752;2023-09-18T03:53:39;100022.50;;;18.38;100.00
72560;BME280;62987;52.382;9.752;2023-09-18T03:56:07;100011.53;;;18.30;100.00
72560;BME280;62987;52.382;9.752;2023-09-18T03:58:36;100011.28;;;18.33;100.00
72560;BME280;62987;52.382;9.752;2023-09-18T04:01:04;100021.31;;;18.31;100.00
72560;BME280;62987;52.382;9.752;2023-09-18T04:03:32;100016.69;;;18.33;100.00
72560;BME280;62987;52.382;9.752;2023-09-18T04:06:01;100000.19;;;18.26;100.00
72560;BME280;62987;52.382;9.752;2023-09-18T04:08:30;100002.16;;;18.24;100.00
72560;BME280;62987;52.382;9.752;2023-09-18T04:11:01;100000.56;;;18.22;100.00
72560;BME280;62987;52.382;9.752;2023-09-18T04:13:31;99995.91;;;18.24;100.00
72560;BME280;62987;52.382;9.752;2023-09-18T04:16:01;99980.41;;;18.16;100.00
72560;BME280;62987;52.382;9.752;2023-09-18T04:18:31;99963.47;;;18.05;100.00
72560;BME280;62987;52.382;9.752;2023-09-18T04:21:00;99969.19;;;18.11;100.00
72560;BME280;62987;52.382;9.752;2023-09-18T04:23:28;99957.63;;;18.00;100.00
72560;BME280;62987;52.382;9.752;2023-09-18T04:25:57;99969.31;;;18.10;100.00
72560;BME280;62987;52.382;9.752;2023-09-18T04:28:28;99957.34;;;18.03;100.00
72560;BME280;62987;52.382;9.752;2023-09-18T04:30:56;99962.47;;;18.06;100.00
72560;BME280;62987;52.382;9.752;2023-09-18T04:33:25;99954.66;;;18.03;100.00
72560;BME280;62987;52.382;9.752;2023-09-18T04:35:57;99948.69;;;17.99;100.00
72560;BME280;62987;52.382;9.752;2023-09-18T04:38:25;99948.16;;;18.05;100.00
72560;BME280;62987;52.382;9.752;2023-09-18T04:40:57;99936.50;;;17.95;100.00
72560;BME280;62987;52.382;9.752;2023-09-18T04:43:28;99939.63;;;18.00;100.00
72560;BME280;62987;52.382;9.752;2023-09-18T04:45:59;99940.50;;;18.01;100.00
72560;BME280;62987;52.382;9.752;2023-09-18T04:48:28;99932.53;;;17.99;100.00
72560;BME280;62987;52.382;9.752;2023-09-18T04:50:56;99924.88;;;17.94;100.00
72560;BME280;62987;52.382;9.752;2023-09-18T04:53:27;99916.06;;;17.92;100.00
72560;BME280;62987;52.382;9.752;2023-09-18T04:55:56;99917.50;;;17.96;100.00
72560;BME280;62987;52.382;9.752;2023-09-18T04:58:25;99905.53;;;17.89;100.00
72560;BME280;62987;52.382;9.752;2023-09-18T05:00:55;99902.16;;;17.87;100.00
72560;BME280;62987;52.382;9.752;2023-09-18T05:03:25;99887.00;;;17.86;100.00
72560;BME280;62987;52.382;9.752;2023-09-18T05:05:57;99892.38;;;17.86;100.00
72560;BME280;62987;52.382;9.752;2023-09-18T05:08:25;99867.41;;;17.64;100.00
72560;BME280;62987;52.382;9.752;2023-09-18T05:10:53;99892.44;;;17.75;100.00
72560;BME280;62987;52.382;9.752;2023-09-18T05:13:22;99881.94;;;17.72;100.00
72560;BME280;62987;52.382;9.752;2023-09-18T05:15:50;99877.41;;;17.73;100.00
72560;BME280;62987;52.382;9.752;2023-09-18T05:18:20;99877.28;;;17.74;100.00
72560;BME280;62987;52.382;9.752;2023-09-18T05:20:48;99881.69;;;17.75;100.00
72560;BME280;62987;52.382;9.752;2023-09-18T05:23:16;99874.91;;;17.81;100.00
72560;BME280;62987;52.382;9.752;2023-09-18T05:25:46;99873.53;;;17.86;100.00
72560;BME280;62987;52.382;9.752;2023-09-18T05:28:14;99866.19;;;17.88;100.00
72560;BME280;62987;52.382;9.752;2023-09-18T05:30:42;99867.03;;;17.89;100.00
72560;BME280;62987;52.382;9.752;2023-09-18T05:33:11;99872.28;;;17.90;100.00
72560;BME280;62987;52.382;9.752;2023-09-18T05:35:43;99898.88;;;18.05;100.00
72560;BME280;62987;52.382;9.752;2023-09-18T05:38:13;99902.63;;;18.13;100.00
72560;BME280;62987;52.382;9.752;2023-09-18T05:40:41;99880.78;;;18.16;100.00
72560;BME280;62987;52.382;9.752;2023-09-18T05:43:10;99872.06;;;18.24;100.00
72560;BME280;62987;52.382;9.752;2023-09-18T05:45:39;99889.59;;;18.39;100.00
72560;BME280;62987;52.382;9.752;2023-09-18T05:48:08;99890.75;;;18.46;100.00
72560;BME280;62987;52.382;9.752;2023-09-18T05:50:37;99874.31;;;18.49;100.00
72560;BME280;62987;52.382;9.752;2023-09-18T05:53:09;99868.03;;;18.60;100.00
72560;BME280;62987;52.382;9.752;2023-09-18T05:55:38;99863.78;;;18.67;100.00
72560;BME280;62987;52.382;9.752;2023-09-18T05:58:07;99857.88;;;18.73;100.00
72560;BME280;62987;52.382;9.752;2023-09-18T06:00:35;99841.28;;;18.77;100.00
72560;BME280;62987;52.382;9.752;2023-09-18T06:03:04;99845.97;;;18.85;100.00
72560;BME280;62987;52.382;9.752;2023-09-18T06:05:34;99845.44;;;18.91;100.00
72560;BME280;62987;52.382;9.752;2023-09-18T06:08:03;99839.03;;;18.92;100.00
72560;BME280;62987;52.382;9.752;2023-09-18T06:10:34;99824.84;;;18.90;100.00
72560;BME280;62987;52.382;9.752;2023-09-18T06:13:02;99827.28;;;19.03;100.00
72560;BME280;62987;52.382;9.752;2023-09-18T06:15:33;99822.19;;;19.09;100.00
72560;BME280;62987;52.382;9.752;2023-09-18T06:18:01;99818.50;;;19.20;100.00
72560;BME280;62987;52.382;9.752;2023-09-18T06:20:30;99794.34;;;19.18;100.00
72560;BME280;62987;52.382;9.752;2023-09-18T06:22:59;99783.31;;;19.31;100.00
72560;BME280;62987;52.382;9.752;2023-09-18T06:25:27;99767.69;;;19.35;100.00
72560;BME280;62987;52.382;9.752;2023-09-18T06:27:58;99771.38;;;19.43;100.00
72560;BME280;62987;52.382;9.752;2023-09-18T06:30:27;99776.38;;;19.48;100.00
72560;BME280;62987;52.382;9.752;2023-09-18T06:32:58;99768.81;;;19.51;100.00
72560;BME280;62987;52.382;9.752;2023-09-18T06:35:26;99768.41;;;19.56;100.00
72560;BME280;62987;52.382;9.752;2023-09-18T06:37:55;99786.72;;;19.62;100.00
72560;BME280;62987;52.382;9.752;2023-09-18T06:40:25;99786.69;;;19.72;100.00
72560;BME280;62987;52.382;9.752;2023-09-18T06:42:59;99762.41;;;19.72;100.00
72560;BME280;62987;52.382;9.752;2023-09-18T06:45:28;99770.63;;;19.80;100.00
72560;BME280;62987;52.382;9.752;2023-09-18T06:47:56;99774.44;;;19.87;100.00
72560;BME280;62987;52.382;9.752;2023-09-18T06:50:25;99781.09;;;19.92;100.00
72560;BME280;62987;52.382;9.752;2023-09-18T06:52:53;99776.41;;;19.94;100.00
72560;BME280;62987;52.382;9.752;2023-09-18T06:55:22;99775.09;;;19.99;100.00
72560;BME280;62987;52.382;9.752;2023-09-18T06:57:50;99771.28;;;20.01;100.00
72560;BME280;62987;52.382;9.752;2023-09-18T07:00:22;99795.97;;;20.06;100.00
72560;BME280;62987;52.382;9.752;2023-09-18T07:02:50;99782.59;;;20.14;100.00
72560;BME280;62987;52.382;9.752;2023-09-18T07:05:19;99796.94;;;20.15;100.00
72560;BME280;62987;52.382;9.752;2023-09-18T07:07:47;99784.00;;;20.18;100.00
72560;BME280;62987;52.382;9.752;2023-09-18T07:10:15;99786.09;;;20.24;100.00
72560;BME280;62987;52.382;9.752;2023-09-18T07:12:44;99789.50;;;20.26;100.00
72560;BME280;62987;52.382;9.752;2023-09-18T07:15:12;99779.09;;;20.31;100.00
72560;BME280;62987;52.382;9.752;2023-09-18T07:17:42;99785.19;;;20.43;100.00
72560;BME280;62987;52.382;9.752;2023-09-18T07:20:11;99787.84;;;20.53;100.00
72560;BME280;62987;52.382;9.752;2023-09-18T07:22:45;99775.00;;;20.55;100.00
72560;BME280;62987;52.382;9.752;2023-09-18T07:25:14;99776.59;;;20.75;100.00
72560;BME280;62987;52.382;9.752;2023-09-18T07:27:43;99786.50;;;20.84;100.00
72560;BME280;62987;52.382;9.752;2023-09-18T07:30:15;99769.69;;;20.90;100.00
72560;BME280;62987;52.382;9.752;2023-09-18T07:32:57;99769.06;;;20.96;100.00
72560;BME280;62987;52.382;9.752;2023-09-18T07:35:26;99782.28;;;20.99;100.00
72560;BME280;62987;52.382;9.752;2023-09-18T07:37:57;99769.84;;;21.06;100.00
72560;BME280;62987;52.382;9.752;2023-09-18T07:40:27;99780.84;;;21.23;100.00
72560;BME280;62987;52.382;9.752;2023-09-18T07:42:55;99769.97;;;21.32;100.00
72560;BME280;62987;52.382;9.752;2023-09-18T07:45:24;99787.31;;;21.47;100.00
72560;BME280;62987;52.382;9.752;2023-09-18T07:47:52;99788.25;;;21.56;100.00
72560;BME280;62987;52.382;9.752;2023-09-18T07:50:22;99783.53;;;21.58;100.00
72560;BME280;62987;52.382;9.752;2023-09-18T07:52:51;99790.06;;;21.73;100.00
72560;BME280;62987;52.382;9.752;2023-09-18T07:55:19;99789.63;;;21.86;100.00
72560;BME280;62987;52.382;9.752;2023-09-18T07:57:50;99785.53;;;22.00;100.00
72560;BME280;62987;52.382;9.752;2023-09-18T08:00:18;99778.88;;;22.20;100.00
72560;BME280;62987;52.382;9.752;2023-09-18T08:02:49;99784.66;;;22.25;100.00
72560;BME280;62987;52.382;9.752;2023-09-18T08:05:24;99793.28;;;22.20;100.00
72560;BME280;62987;52.382;9.752;2023-09-18T08:07:55;99773.75;;;22.17;100.00
72560;BME280;62987;52.382;9.752;2023-09-18T08:10:24;99789.81;;;22.36;100.00
72560;BME280;62987;52.382;9.752;2023-09-18T08:12:52;99800.00;;;22.50;100.00
72560;BME280;62987;52.382;9.752;2023-09-18T08:15:21;99803.13;;;22.63;100.00
72560;BME280;62987;52.382;9.752;2023-09-18T08:17:49;99802.91;;;22.91;100.00
72560;BME280;62987;52.382;9.752;2023-09-18T08:20:18;99805.44;;;22.84;100.00
72560;BME280;62987;52.382;9.752;2023-09-18T08:22:47;99815.09;;;22.87;100.00
72560;BME280;62987;52.382;9.752;2023-09-18T08:25:17;99822.91;;;22.90;100.00
72560;BME280;62987;52.382;9.752;2023-09-18T08:27:45;99821.19;;;22.89;100.00
72560;BME280;62987;52.382;9.752;2023-09-18T08:30:14;99813.75;;;22.91;100.00
72560;BME280;62987;52.382;9.752;2023-09-18T08:32:44;99813.44;;;22.94;100.00
72560;BME280;62987;52.382;9.752;2023-09-18T08:35:13;99813.63;;;23.00;100.00
72560;BME280;62987;52.382;9.752;2023-09-18T08:37:41;99814.22;;;22.78;100.00
72560;BME280;62987;52.382;9.752;2023-09-18T08:40:12;99808.00;;;22.94;100.00
72560;BME280;62987;52.382;9.752;2023-09-18T08:42:45;99817.50;;;22.98;100.00
72560;BME280;62987;52.382;9.752;2023-09-18T08:45:20;99801.91;;;23.00;100.00
72560;BME280;62987;52.382;9.752;2023-09-18T08:47:51;99810.06;;;23.16;100.00
72560;BME280;62987;52.382;9.752;2023-09-18T08:50:20;99813.50;;;23.26;100.00
72560;BME280;62987;52.382;9.752;2023-09-18T08:52:50;99802.66;;;23.26;100.00
72560;BME280;62987;52.382;9.752;2023-09-18T08:55:19;99794.16;;;23.29;100.00
72560;BME280;62987;52.382;9.752;2023-09-18T08:57:49;99779.41;;;23.32;100.00
72560;BME280;62987;52.382;9.752;2023-09-18T09:00:18;99797.41;;;23.49;100.00
72560;BME280;62987;52.382;9.752;2023-09-18T09:02:47;99779.59;;;23.55;100.00
72560;BME280;62987;52.382;9.752;2023-09-18T09:05:18;99788.09;;;23.68;100.00
72560;BME280;62987;52.382;9.752;2023-09-18T09:07:48;99794.03;;;23.63;100.00
72560;BME280;62987;52.382;9.752;2023-09-18T09:10:16;99798.28;;;23.66;100.00
72560;BME280;62987;52.382;9.752;2023-09-18T09:12:53;99787.91;;;23.77;100.00
72560;BME280;62987;52.382;9.752;2023-09-18T09:15:23;99792.63;;;24.00;100.00
72560;BME280;62987;52.382;9.752;2023-09-18T09:18:02;99786.53;;;23.81;100.00
72560;BME280;62987;52.382;9.752;2023-09-18T09:20:32;99794.84;;;23.88;100.00
72560;BME280;62987;52.382;9.752;2023-09-18T09:23:04;99795.84;;;24.03;100.00
72560;BME280;62987;52.382;9.752;2023-09-18T09:25:35;99799.06;;;23.99;100.00
72560;BME280;62987;52.382;9.752;2023-09-18T09:28:06;99785.84;;;23.87;100.00
72560;BME280;62987;52.382;9.752;2023-09-18T09:30:36;99792.34;;;23.70;100.00
72560;BME280;62987;52.382;9.752;2023-09-18T09:33:05;99798.25;;;23.82;100.00
72560;BME280;62987;52.382;9.752;2023-09-18T09:35:36;99786.91;;;23.78;100.00
72560;BME280;62987;52.382;9.752;2023-09-18T09:38:09;99798.91;;;23.92;100.00
72560;BME280;62987;52.382;9.752;2023-09-18T09:40:39;99794.69;;;23.98;100.00
72560;BME280;62987;52.382;9.752;2023-09-18T09:43:11;99806.56;;;23.97;100.00
72560;BME280;62987;52.382;9.752;2023-09-18T09:45:41;99804.69;;;23.89;100.00
72560;BME280;62987;52.382;9.752;2023-09-18T09:48:09;99796.19;;;24.00;100.00
72560;BME280;62987;52.382;9.752;2023-09-18T09:50:44;99797.56;;;23.88;100.00
72560;BME280;62987;52.382;9.752;2023-09-18T09:53:14;99795.56;;;23.66;100.00
72560;BME280;62987;52.382;9.752;2023-09-18T09:55:44;99781.31;;;23.56;100.00
72560;BME280;62987;52.382;9.752;2023-09-18T09:58:13;99790.31;;;23.64;100.00
72560;BME280;62987;52.382;9.752;2023-09-18T10:00:43;99789.44;;;23.64;100.00
72560;BME280;62987;52.382;9.752;2023-09-18T10:03:19;99796.91;;;23.70;100.00
72560;BME280;62987;52.382;9.752;2023-09-18T10:05:51;99787.41;;;23.66;100.00
72560;BME280;62987;52.382;9.752;2023-09-18T10:08:22;99796.41;;;23.58;100.00
72560;BME280;62987;52.382;9.752;2023-09-18T10:10:55;99792.84;;;23.66;100.00
72560;BME280;62987;52.382;9.752;2023-09-18T10:13:29;99797.91;;;23.61;100.00
72560;BME280;62987;52.382;9.752;2023-09-18T10:16:00;99784.00;;;23.56;100.00
72560;BME280;62987;52.382;9.752;2023-09-18T10:18:38;99800.66;;;23.77;100.00
72560;BME280;62987;52.382;9.752;2023-09-18T10:21:15;99807.78;;;23.78;100.00
72560;BME280;62987;52.382;9.752;2023-09-18T10:23:56;99796.91;;;23.70;100.00
72560;BME280;62987;52.382;9.752;2023-09-18T10:26:27;99792.34;;;23.78;100.00
72560;BME280;62987;52.382;9.752;2023-09-18T10:28:58;99804.22;;;23.77;100.00
72560;BME280;62987;52.382;9.752;2023-09-18T10:31:33;99800.97;;;23.82;100.00
72560;BME280;62987;52.382;9.752;2023-09-18T10:34:04;99794.38;;;23.76;100.00
72560;BME280;62987;52.382;9.752;2023-09-18T10:36:34;99799.78;;;23.60;100.00
72560;BME280;62987;52.382;9.752;2023-09-18T10:39:05;99821.00;;;23.73;100.00
72560;BME280;62987;52.382;9.752;2023-09-18T10:41:36;99817.97;;;23.76;100.00
72560;BME280;62987;52.382;9.752;2023-09-18T10:44:06;99818.81;;;23.84;100.00
72560;BME280;62987;52.382;9.752;2023-09-18T10:46:35;99821.00;;;23.89;100.00
72560;BME280;62987;52.382;9.752;2023-09-18T10:49:04;99822.69;;;23.90;100.00
72560;BME280;62987;52.382;9.752;2023-09-18T10:51:33;99819.31;;;23.88;100.00
72560;BME280;62987;52.382;9.752;2023-09-18T10:54:01;99824.91;;;23.95;100.00
72560;BME280;62987;52.382;9.752;2023-09-18T10:56:30;99826.59;;;24.04;100.00
72560;BME280;62987;52.382;9.752;2023-09-18T10:59:01;99822.69;;;23.90;100.00
72560;BME280;62987;52.382;9.752;2023-09-18T11:01:31;99837.31;;;23.89;100.00
72560;BME280;62987;52.382;9.752;2023-09-18T11:04:01;99837.63;;;23.86;100.00
72560;BME280;62987;52.382;9.752;2023-09-18T11:06:30;99862.94;;;23.78;100.00
72560;BME280;62987;52.382;9.752;2023-09-18T11:09:20;99866.16;;;23.74;100.00
72560;BME280;62987;52.382;9.752;2023-09-18T11:11:52;99849.19;;;23.56;100.00
72560;BME280;62987;52.382;9.752;2023-09-18T11:14:41;99876.69;;;23.77;100.00
72560;BME280;62987;52.382;9.752;2023-09-18T11:17:32;99860.72;;;23.74;100.00
72560;BME280;62987;52.382;9.752;2023-09-18T11:20:05;99869.91;;;23.89;100.00
72560;BME280;62987;52.382;9.752;2023-09-18T11:22:36;99835.97;;;23.85;100.00
72560;BME280;62987;52.382;9.752;2023-09-18T11:25:30;99855.31;;;23.90;100.00
72560;BME280;62987;52.382;9.752;2023-09-18T11:28:03;99859.69;;;23.99;100.00
72560;BME280;62987;52.382;9.752;2023-09-18T11:30:34;99871.09;;;24.03;100.00
72560;BME280;62987;52.382;9.752;2023-09-18T11:33:06;99863.72;;;24.44;100.00
72560;BME280;62987;52.382;9.752;2023-09-18T11:35:37;99847.78;;;24.41;100.00
72560;BME280;62987;52.382;9.752;2023-09-18T11:38:08;99860.22;;;24.19;100.00
72560;BME280;62987;52.382;9.752;2023-09-18T11:40:38;99840.50;;;24.09;100.00
72560;BME280;62987;52.382;9.752;2023-09-18T11:43:19;99841.00;;;24.28;100.00
72560;BME280;62987;52.382;9.752;2023-09-18T11:45:52;99850.00;;;24.29;100.00
72560;BME280;62987;52.382;9.752;2023-09-18T11:48:22;99856.63;;;24.26;100.00
72560;BME280;62987;52.382;9.752;2023-09-18T11:50:57;99860.06;;;24.04;100.00
72560;BME280;62987;52.382;9.752;2023-09-18T11:53:27;99827.81;;;23.85;100.00
72560;BME280;62987;52.382;9.752;2023-09-18T11:55:56;99840.00;;;23.81;100.00
72560;BME280;62987;52.382;9.752;2023-09-18T11:58:28;99843.75;;;23.80;100.00
72560;BME280;62987;52.382;9.752;2023-09-18T12:01:05;99841.72;;;23.74;100.00
72560;BME280;62987;52.382;9.752;2023-09-18T12:03:41;99844.94;;;23.77;100.00
72560;BME280;62987;52.382;9.752;2023-09-18T12:06:10;99852.91;;;23.79;100.00
72560;BME280;62987;52.382;9.752;2023-09-18T12:08:40;99851.25;;;23.78;100.00
72560;BME280;62987;52.382;9.752;2023-09-18T12:11:09;99862.59;;;23.81;100.00
72560;BME280;62987;52.382;9.752;2023-09-18T12:13:46;99872.97;;;23.78;100.00
72560;BME280;62987;52.382;9.752;2023-09-18T12:16:15;99872.28;;;23.68;100.00
72560;BME280;62987;52.382;9.752;2023-09-18T12:18:46;99872.63;;;23.89;100.00
72560;BME280;62987;52.382;9.752;2023-09-18T12:21:17;99861.75;;;23.81;100.00
72560;BME280;62987;52.382;9.752;2023-09-18T12:23:46;99880.41;;;23.92;100.00
72560;BME280;62987;52.382;9.752;2023-09-18T12:26:15;99883.13;;;24.00;100.00
72560;BME280;62987;52.382;9.752;2023-09-18T12:28:44;99887.72;;;24.08;100.00
72560;BME280;62987;52.382;9.752;2023-09-18T12:31:14;99870.06;;;24.28;100.00
72560;BME280;62987;52.382;9.752;2023-09-18T12:33:43;99867.50;;;24.26;100.00
72560;BME280;62987;52.382;9.752;2023-09-18T12:36:19;99879.94;;;24.21;100.00
72560;BME280;62987;52.382;9.752;2023-09-18T12:38:55;99863.44;;;24.31;100.00
72560;BME280;62987;52.382;9.752;2023-09-18T12:41:25;99858.66;;;24.41;100.00
72560;BME280;62987;52.382;9.752;2023-09-18T12:43:59;99853.44;;;24.23;100.00
72560;BME280;62987;52.382;9.752;2023-09-18T12:46:29;99863.44;;;24.22;100.00
72560;BME280;62987;52.382;9.752;2023-09-18T12:48:58;99847.16;;;24.22;100.00
72560;BME280;62987;52.382;9.752;2023-09-18T12:51:32;99827.75;;;24.34;100.00
72560;BME280;62987;52.382;9.752;2023-09-18T12:54:01;99842.34;;;24.24;100.00
72560;BME280;62987;52.382;9.752;2023-09-18T12:56:40;99843.56;;;24.22;100.00
72560;BME280;62987;52.382;9.752;2023-09-18T12:59:09;99844.56;;;24.13;100.00
72560;BME280;62987;52.382;9.752;2023-09-18T13:01:46;99844.72;;;24.11;100.00
72560;BME280;62987;52.382;9.752;2023-09-18T13:04:15;99842.06;;;23.95;100.00